sensor_id;sensor_type;location;lat;lon;timestamp;temperature;humidity
3944;DHT22;1986;52.546;13.428;2023-06-04T00:01:26;12.50;55.00
3944;DHT22;1986;52.546;13.428;2023-06-04T00:03:53;12.40;56.10
3944;DHT22;1986;52.546;13.428;2023-06-04T00:06:20;12.40;55.70
3944;DHT22;1986;52.546;13.428;2023-06-04T00:08:47;12.30;56.00
3944;DHT22;1986;52.546;13.428;2023-06-04T00:11:14;12.30;56.50
3944;DHT22;1986;52.546;13.428;2023-06-04T00:13:43;12.20;57.20
3944;DHT22;1986;52.546;13.428;2023-06-04T00:16:11;12.20;57.80
3944;DHT22;1986;52.546;13.428;2023-06-04T00:18:38;12.10;58.50
3944;DHT22;1986;52.546;13.428;2023-06-04T00:21:05;12.00;59.20
3944;DHT22;1986;52.546;13.428;2023-06-04T00:23:32;11.90;60.30
3944;DHT22;1986;52.546;13.428;2023-06-04T00:25:59;11.80;61.80
3944;DHT22;1986;52.546;13.428;2023-06-04T00:28:26;11.70;63.30
3944;DHT22;1986;52.546;13.428;2023-06-04T00:30:53;11.60;64.50
3944;DHT22;1986;52.546;13.428;2023-06-04T00:33:22;11.50;65.70
3944;DHT22;1986;52.546;13.428;2023-06-04T00:35:49;11.40;67.10
3944;DHT22;1986;52.546;13.428;2023-06-04T00:38:16;11.30;69.30
3944;DHT22;1986;52.546;13.428;2023-06-04T00:40:42;11.20;70.10
3944;DHT22;1986;52.546;13.428;2023-06-04T00:43:10;11.10;71.70
3944;DHT22;1986;52.546;13.428;2023-06-04T00:45:39;11.00;73.30
3944;DHT22;1986;52.546;13.428;2023-06-04T00:48:06;11.00;75.60
3944;DHT22;1986;52.546;13.428;2023-06-04T00:50:35;10.90;77.10
3944;DHT22;1986;52.546;13.428;2023-06-04T00:53:04;10.90;78.00
3944;DHT22;1986;52.546;13.428;2023-06-04T00:55:31;10.80;79.30
3944;DHT22;1986;52.546;13.428;2023-06-04T00:57:59;10.80;80.90
3944;DHT22;1986;52.546;13.428;2023-06-04T01:00:27;10.70;82.30
3944;DHT22;1986;52.546;13.428;2023-06-04T01:02:54;10.70;83.70
3944;DHT22;1986;52.546;13.428;2023-06-04T01:05:29;10.60;84.80
3944;DHT22;1986;52.546;13.428;2023-06-04T01:07:58;10.60;86.10
3944;DHT22;1986;52.546;13.428;2023-06-04T01:10:25;10.60;87.70
3944;DHT22;1986;52.546;13.428;2023-06-04T01:12:52;10.60;89.30
3944;DHT22;1986;52.546;13.428;2023-06-04T01:15:19;10.60;90.40
3944;DHT22;1986;52.546;13.428;2023-06-04T01:17:49;10.50;91.10
3944;DHT22;1986;52.546;13.428;2023-06-04T01:20:28;10.50;91.70
3944;DHT22;1986;52.546;13.428;2023-06-04T01:23:24;10.50;92.40
3944;DHT22;1986;52.546;13.428;2023-06-04T01:25:54;10.40;93.00
3944;DHT22;1986;52.546;13.428;2023-06-04T01:28:23;10.40;93.50
3944;DHT22;1986;52.546;13.428;2023-06-04T01:30:52;10.40;93.90
3944;DHT22;1986;52.546;13.428;2023-06-04T01:33:22;10.40;94.20
3944;DHT22;1986;52.546;13.428;2023-06-04T01:35:50;10.30;94.60
3944;DHT22;1986;52.546;13.428;2023-06-04T01:38:18;10.30;95.00
3944;DHT22;1986;52.546;13.428;2023-06-04T01:40:45;10.30;95.30
3944;DHT22;1986;52.546;13.428;2023-06-04T01:43:13;10.30;95.70
3944;DHT22;1986;52.546;13.428;2023-06-04T01:45:40;10.20;96.00
3944;DHT22;1986;52.546;13.428;2023-06-04T01:48:07;10.20;96.30
3944;DHT22;1986;52.546;13.428;2023-06-04T01:50:34;10.20;96.60
3944;DHT22;1986;52.546;13.428;2023-06-04T01:53:01;10.10;96.80
3944;DHT22;1986;52.546;13.428;2023-06-04T01:55:29;10.10;97.20
3944;DHT22;1986;52.546;13.428;2023-06-04T01:57:59;10.10;97.50
3944;DHT22;1986;52.546;13.428;2023-06-04T02:00:26;10.10;97.80
3944;DHT22;1986;52.546;13.428;2023-06-04T02:02:53;10.10;98.10
3944;DHT22;1986;52.546;13.428;2023-06-04T02:05:21;10.10;98.30
3944;DHT22;1986;52.546;13.428;2023-06-04T02:07:48;10.10;98.60
3944;DHT22;1986;52.546;13.428;2023-06-04T02:10:18;10.10;98.70
3944;DHT22;1986;52.546;13.428;2023-06-04T02:12:57;10.10;99.30
3944;DHT22;1986;52.546;13.428;2023-06-04T02:15:26;10.10;99.10
3944;DHT22;1986;52.546;13.428;2023-06-04T02:17:56;10.00;99.40
3944;DHT22;1986;52.546;13.428;2023-06-04T02:20:24;10.00;99.60
3944;DHT22;1986;52.546;13.428;2023-06-04T02:22:53;10.00;99.90
3944;DHT22;1986;52.546;13.428;2023-06-04T02:25:20;9.90;99.90
3944;DHT22;1986;52.546;13.428;2023-06-04T02:27:47;9.80;99.90
3944;DHT22;1986;52.546;13.428;2023-06-04T02:30:15;9.80;99.90
3944;DHT22;1986;52.546;13.428;2023-06-04T02:32:43;9.80;99.90
3944;DHT22;1986;52.546;13.428;2023-06-04T02:35:10;9.70;99.90
3944;DHT22;1986;52.546;13.428;2023-06-04T02:37:37;9.80;99.90
3944;DHT22;1986;52.546;13.428;2023-06-04T02:40:05;9.70;99.90
3944;DHT22;1986;52.546;13.428;2023-06-04T02:42:32;9.60;99.90
3944;DHT22;1986;52.546;13.428;2023-06-04T02:44:59;9.60;99.90
3944;DHT22;1986;52.546;13.428;2023-06-04T02:47:27;9.50;99.90
3944;DHT22;1986;52.546;13.428;2023-06-04T02:49:54;9.60;99.90
3944;DHT22;1986;52.546;13.428;2023-06-04T02:52:21;9.60;99.90
3944;DHT22;1986;52.546;13.428;2023-06-04T02:54:50;9.50;99.90
3944;DHT22;1986;52.546;13.428;2023-06-04T02:57:17;9.40;99.90
3944;DHT22;1986;52.546;13.428;2023-06-04T02:59:44;9.50;99.90
3944;DHT22;1986;52.546;13.428;2023-06-04T03:02:11;9.50;99.90
3944;DHT22;1986;52.546;13.428;2023-06-04T03:04:42;9.40;99.90
3944;DHT22;1986;52.546;13.428;2023-06-04T03:07:09;9.40;99.90
3944;DHT22;1986;52.546;13.428;2023-06-04T03:09:37;9.40;99.90
3944;DHT22;1986;52.546;13.428;2023-06-04T03:12:05;9.40;99.90
3944;DHT22;1986;52.546;13.428;2023-06-04T03:14:34;9.40;99.90
3944;DHT22;1986;52.546;13.428;2023-06-04T03:17:02;9.40;99.90
3944;DHT22;1986;52.546;13.428;2023-06-04T03:19:34;9.40;99.90
3944;DHT22;1986;52.546;13.428;2023-06-04T03:22:04;9.40;99.90
3944;DHT22;1986;52.546;13.428;2023-06-04T03:24:33;9.40;99.90
3944;DHT22;1986;52.546;13.428;2023-06-04T03:27:02;9.40;99.90
3944;DHT22;1986;52.546;13.428;2023-06-04T03:29:29;9.40;99.90
3944;DHT22;1986;52.546;13.428;2023-06-04T03:31:57;9.40;99.90
3944;DHT22;1986;52.546;13.428;2023-06-04T03:34:24;9.40;99.90
3944;DHT22;1986;52.546;13.428;2023-06-04T03:36:51;9.40;99.90
3944;DHT22;1986;52.546;13.428;2023-06-04T03:39:20;9.50;99.90
3944;DHT22;1986;52.546;13.428;2023-06-04T03:41:47;9.50;99.90
3944;DHT22;1986;52.546;13.428;2023-06-04T03:44:14;9.50;99.90
3944;DHT22;1986;52.546;13.428;2023-06-04T03:46:42;9.50;99.90
3944;DHT22;1986;52.546;13.428;2023-06-04T03:49:10;9.50;99.90
3944;DHT22;1986;52.546;13.428;2023-06-04T03:51:38;9.50;99.90
3944;DHT22;1986;52.546;13.428;2023-06-04T03:54:05;9.50;99.90
3944;DHT22;1986;52.546;13.428;2023-06-04T03:56:33;9.60;99.90
3944;DHT22;1986;52.546;13.428;2023-06-04T03:59:01;9.60;99.90
3944;DHT22;1986;52.546;13.428;2023-06-04T04:01:28;9.70;99.90
3944;DHT22;1986;52.546;13.428;2023-06-04T04:03:55;9.70;99.90
3944;DHT22;1986;52.546;13.428;2023-06-04T04:06:23;9.80;99.90
3944;DHT22;1986;52.546;13.428;2023-06-04T04:08:50;9.90;99.90
3944;DHT22;1986;52.546;13.428;2023-06-04T04:11:18;10.20;99.90
3944;DHT22;1986;52.546;13.428;2023-06-04T04:13:47;10.30;99.90
3944;DHT22;1986;52.546;13.428;2023-06-04T04:16:14;10.30;99.90
3944;DHT22;1986;52.546;13.428;2023-06-04T04:18:42;10.30;99.90
3944;DHT22;1986;52.546;13.428;2023-06-04T04:21:09;10.30;99.90
3944;DHT22;1986;52.546;13.428;2023-06-04T04:23:41;10.40;99.90
3944;DHT22;1986;52.546;13.428;2023-06-04T04:26:08;10.60;99.90
3944;DHT22;1986;52.546;13.428;2023-06-04T04:28:36;10.90;99.90
3944;DHT22;1986;52.546;13.428;2023-06-04T04:31:05;11.00;99.90
3944;DHT22;1986;52.546;13.428;2023-06-04T04:33:36;11.00;99.90
3944;DHT22;1986;52.546;13.428;2023-06-04T04:36:05;11.00;99.90
3944;DHT22;1986;52.546;13.428;2023-06-04T04:38:34;10.90;99.90
3944;DHT22;1986;52.546;13.428;2023-06-04T04:41:01;11.00;99.90
3944;DHT22;1986;52.546;13.428;2023-06-04T04:43:29;11.10;99.90
3944;DHT22;1986;52.546;13.428;2023-06-04T04:45:56;11.00;99.90
3944;DHT22;1986;52.546;13.428;2023-06-04T04:48:25;11.10;99.90
3944;DHT22;1986;52.546;13.428;2023-06-04T04:50:52;11.10;99.90
3944;DHT22;1986;52.546;13.428;2023-06-04T04:53:19;11.10;99.90
3944;DHT22;1986;52.546;13.428;2023-06-04T04:55:48;11.10;99.90
3944;DHT22;1986;52.546;13.428;2023-06-04T04:58:16;11.30;99.90
3944;DHT22;1986;52.546;13.428;2023-06-04T05:00:43;11.40;99.90
3944;DHT22;1986;52.546;13.428;2023-06-04T05:03:11;11.60;99.90
3944;DHT22;1986;52.546;13.428;2023-06-04T05:05:39;11.80;99.90
3944;DHT22;1986;52.546;13.428;2023-06-04T05:08:08;12.00;99.90
3944;DHT22;1986;52.546;13.428;2023-06-04T05:10:35;12.20;99.90
3944;DHT22;1986;52.546;13.428;2023-06-04T05:13:03;12.30;99.90
3944;DHT22;1986;52.546;13.428;2023-06-04T05:15:32;12.40;99.90
3944;DHT22;1986;52.546;13.428;2023-06-04T05:18:02;12.50;99.90
3944;DHT22;1986;52.546;13.428;2023-06-04T05:20:29;12.80;99.90
3944;DHT22;1986;52.546;13.428;2023-06-04T05:22:57;13.10;99.70
3944;DHT22;1986;52.546;13.428;2023-06-04T05:25:25;13.20;99.10
3944;DHT22;1986;52.546;13.428;2023-06-04T05:27:56;13.30;98.60
3944;DHT22;1986;52.546;13.428;2023-06-04T05:30:23;13.60;97.90
3944;DHT22;1986;52.546;13.428;2023-06-04T05:32:51;13.90;97.30
3944;DHT22;1986;52.546;13.428;2023-06-04T05:35:18;13.90;96.40
3944;DHT22;1986;52.546;13.428;2023-06-04T05:37:48;14.00;96.10
3944;DHT22;1986;52.546;13.428;2023-06-04T05:40:21;14.60;95.70
3944;DHT22;1986;52.546;13.428;2023-06-04T05:42:50;15.20;94.30
3944;DHT22;1986;52.546;13.428;2023-06-04T05:45:20;15.40;92.90
3944;DHT22;1986;52.546;13.428;2023-06-04T05:47:47;15.80;92.30
3944;DHT22;1986;52.546;13.428;2023-06-04T05:50:14;16.20;91.10
3944;DHT22;1986;52.546;13.428;2023-06-04T05:52:43;16.30;88.80
3944;DHT22;1986;52.546;13.428;2023-06-04T05:55:09;15.90;88.20
3944;DHT22;1986;52.546;13.428;2023-06-04T05:57:40;16.10;89.80
3944;DHT22;1986;52.546;13.428;2023-06-04T06:00:07;16.10;89.90
3944;DHT22;1986;52.546;13.428;2023-06-04T06:02:38;16.40;88.40
3944;DHT22;1986;52.546;13.428;2023-06-04T06:05:06;17.90;85.90
3944;DHT22;1986;52.546;13.428;2023-06-04T06:07:33;18.30;81.80
3944;DHT22;1986;52.546;13.428;2023-06-04T06:10:00;18.30;77.60
3944;DHT22;1986;52.546;13.428;2023-06-04T06:12:28;18.20;73.40
3944;DHT22;1986;52.546;13.428;2023-06-04T06:14:56;18.00;74.60
3944;DHT22;1986;52.546;13.428;2023-06-04T06:17:23;18.00;74.70
3944;DHT22;1986;52.546;13.428;2023-06-04T06:19:51;18.40;75.10
3944;DHT22;1986;52.546;13.428;2023-06-04T06:22:18;19.70;70.80
3944;DHT22;1986;52.546;13.428;2023-06-04T06:24:45;18.70;62.80
3944;DHT22;1986;52.546;13.428;2023-06-04T06:27:14;18.30;61.40
3944;DHT22;1986;52.546;13.428;2023-06-04T06:29:41;18.30;59.40
3944;DHT22;1986;52.546;13.428;2023-06-04T06:32:12;18.70;60.50
3944;DHT22;1986;52.546;13.428;2023-06-04T06:34:39;19.20;58.00
3944;DHT22;1986;52.546;13.428;2023-06-04T06:37:06;19.70;56.90
3944;DHT22;1986;52.546;13.428;2023-06-04T06:39:33;19.00;54.70
3944;DHT22;1986;52.546;13.428;2023-06-04T06:42:00;19.00;54.50
3944;DHT22;1986;52.546;13.428;2023-06-04T06:44:27;20.00;53.30
3944;DHT22;1986;52.546;13.428;2023-06-04T06:46:54;19.80;53.70
3944;DHT22;1986;52.546;13.428;2023-06-04T06:49:22;20.60;47.90
3944;DHT22;1986;52.546;13.428;2023-06-04T06:51:52;21.40;47.70
3944;DHT22;1986;52.546;13.428;2023-06-04T06:54:19;20.90;47.40
3944;DHT22;1986;52.546;13.428;2023-06-04T06:56:56;20.60;43.10
3944;DHT22;1986;52.546;13.428;2023-06-04T06:59:23;21.70;43.10
3944;DHT22;1986;52.546;13.428;2023-06-04T07:01:50;20.60;41.90
3944;DHT22;1986;52.546;13.428;2023-06-04T07:04:17;20.40;44.10
3944;DHT22;1986;52.546;13.428;2023-06-04T07:06:46;18.90;43.20
3944;DHT22;1986;52.546;13.428;2023-06-04T07:09:13;19.30;43.60
3944;DHT22;1986;52.546;13.428;2023-06-04T07:11:43;19.30;42.70
3944;DHT22;1986;52.546;13.428;2023-06-04T07:14:14;19.70;42.90
3944;DHT22;1986;52.546;13.428;2023-06-04T07:16:41;19.40;41.60
3944;DHT22;1986;52.546;13.428;2023-06-04T07:19:08;20.10;41.80
3944;DHT22;1986;52.546;13.428;2023-06-04T07:21:38;20.90;39.60
3944;DHT22;1986;52.546;13.428;2023-06-04T07:24:09;21.30;38.60
3944;DHT22;1986;52.546;13.428;2023-06-04T07:26:44;21.70;37.70
3944;DHT22;1986;52.546;13.428;2023-06-04T07:29:12;21.70;36.30
3944;DHT22;1986;52.546;13.428;2023-06-04T07:31:41;21.10;35.30
3944;DHT22;1986;52.546;13.428;2023-06-04T07:34:08;21.10;35.30
3944;DHT22;1986;52.546;13.428;2023-06-04T07:36:38;21.20;35.30
3944;DHT22;1986;52.546;13.428;2023-06-04T07:39:10;22.10;35.30
3944;DHT22;1986;52.546;13.428;2023-06-04T07:41:40;23.10;35.60
3944;DHT22;1986;52.546;13.428;2023-06-04T07:44:08;21.70;34.70
3944;DHT22;1986;52.546;13.428;2023-06-04T07:46:45;21.50;36.20
3944;DHT22;1986;52.546;13.428;2023-06-04T07:49:22;21.30;34.60
3944;DHT22;1986;52.546;13.428;2023-06-04T07:51:50;22.40;36.40
3944;DHT22;1986;52.546;13.428;2023-06-04T07:54:23;22.70;34.30
3944;DHT22;1986;52.546;13.428;2023-06-04T07:56:56;22.10;33.40
3944;DHT22;1986;52.546;13.428;2023-06-04T07:59:27;22.90;34.30
3944;DHT22;1986;52.546;13.428;2023-06-04T08:01:58;24.40;34.00
3944;DHT22;1986;52.546;13.428;2023-06-04T08:04:26;24.00;33.40
3944;DHT22;1986;52.546;13.428;2023-06-04T08:07:00;24.00;32.40
3944;DHT22;1986;52.546;13.428;2023-06-04T08:09:29;23.10;30.40
3944;DHT22;1986;52.546;13.428;2023-06-04T08:11:57;23.20;30.50
3944;DHT22;1986;52.546;13.428;2023-06-04T08:14:25;23.60;32.40
3944;DHT22;1986;52.546;13.428;2023-06-04T08:16:53;25.50;31.20
3944;DHT22;1986;52.546;13.428;2023-06-04T08:19:20;25.60;29.60
3944;DHT22;1986;52.546;13.428;2023-06-04T08:21:48;23.60;28.60
3944;DHT22;1986;52.546;13.428;2023-06-04T08:24:23;23.50;29.60
3944;DHT22;1986;52.546;13.428;2023-06-04T08:26:51;23.90;29.40
3944;DHT22;1986;52.546;13.428;2023-06-04T08:29:18;25.60;29.10
3944;DHT22;1986;52.546;13.428;2023-06-04T08:31:45;25.50;28.90
3944;DHT22;1986;52.546;13.428;2023-06-04T08:34:12;27.00;27.70
3944;DHT22;1986;52.546;13.428;2023-06-04T08:36:39;25.80;25.60
3944;DHT22;1986;52.546;13.428;2023-06-04T08:39:07;24.30;26.70
3944;DHT22;1986;52.546;13.428;2023-06-04T08:41:42;25.20;27.60
3944;DHT22;1986;52.546;13.428;2023-06-04T08:44:11;25.20;26.80
3944;DHT22;1986;52.546;13.428;2023-06-04T08:46:39;22.90;25.90
3944;DHT22;1986;52.546;13.428;2023-06-04T08:49:07;21.20;27.40
3944;DHT22;1986;52.546;13.428;2023-06-04T08:51:36;19.90;27.50
3944;DHT22;1986;52.546;13.428;2023-06-04T08:54:04;20.10;28.50
3944;DHT22;1986;52.546;13.428;2023-06-04T08:56:31;20.40;28.20
3944;DHT22;1986;52.546;13.428;2023-06-04T08:59:00;20.50;27.10
3944;DHT22;1986;52.546;13.428;2023-06-04T09:01:29;20.50;29.00
3944;DHT22;1986;52.546;13.428;2023-06-04T09:03:58;20.60;29.50
3944;DHT22;1986;52.546;13.428;2023-06-04T09:06:26;20.10;29.40
3944;DHT22;1986;52.546;13.428;2023-06-04T09:08:56;19.90;29.30
3944;DHT22;1986;52.546;13.428;2023-06-04T09:11:26;20.20;30.10
3944;DHT22;1986;52.546;13.428;2023-06-04T09:13:59;20.60;29.90
3944;DHT22;1986;52.546;13.428;2023-06-04T09:16:29;20.80;29.90
3944;DHT22;1986;52.546;13.428;2023-06-04T09:19:02;20.60;30.10
3944;DHT22;1986;52.546;13.428;2023-06-04T09:21:29;20.90;31.00
3944;DHT22;1986;52.546;13.428;2023-06-04T09:23:58;21.00;30.80
3944;DHT22;1986;52.546;13.428;2023-06-04T09:26:25;20.70;30.50
3944;DHT22;1986;52.546;13.428;2023-06-04T09:28:52;20.50;29.90
3944;DHT22;1986;52.546;13.428;2023-06-04T09:31:22;20.10;29.40
3944;DHT22;1986;52.546;13.428;2023-06-04T09:33:56;20.30;30.00
3944;DHT22;1986;52.546;13.428;2023-06-04T09:36:30;20.40;29.20
3944;DHT22;1986;52.546;13.428;2023-06-04T09:38:57;20.50;29.20
3944;DHT22;1986;52.546;13.428;2023-06-04T09:41:25;20.50;28.90
3944;DHT22;1986;52.546;13.428;2023-06-04T09:44:00;20.40;28.80
3944;DHT22;1986;52.546;13.428;2023-06-04T09:46:29;20.30;29.00
3944;DHT22;1986;52.546;13.428;2023-06-04T09:49:03;20.40;30.20
3944;DHT22;1986;52.546;13.428;2023-06-04T09:51:31;20.70;29.80
3944;DHT22;1986;52.546;13.428;2023-06-04T09:54:00;20.80;30.00
3944;DHT22;1986;52.546;13.428;2023-06-04T09:56:27;21.00;30.10
3944;DHT22;1986;52.546;13.428;2023-06-04T09:58:58;21.10;29.50
3944;DHT22;1986;52.546;13.428;2023-06-04T10:01:28;21.00;29.20
3944;DHT22;1986;52.546;13.428;2023-06-04T10:03:57;20.90;28.70
3944;DHT22;1986;52.546;13.428;2023-06-04T10:06:27;21.00;28.50
3944;DHT22;1986;52.546;13.428;2023-06-04T10:08:55;21.00;28.80
3944;DHT22;1986;52.546;13.428;2023-06-04T10:11:26;21.20;29.70
3944;DHT22;1986;52.546;13.428;2023-06-04T10:14:03;21.40;29.00
3944;DHT22;1986;52.546;13.428;2023-06-04T10:16:31;21.10;28.30
3944;DHT22;1986;52.546;13.428;2023-06-04T10:18:59;21.30;28.60
3944;DHT22;1986;52.546;13.428;2023-06-04T10:21:28;21.20;28.80
3944;DHT22;1986;52.546;13.428;2023-06-04T10:24:00;21.50;29.30
3944;DHT22;1986;52.546;13.428;2023-06-04T10:26:27;21.60;29.50
3944;DHT22;1986;52.546;13.428;2023-06-04T10:28:57;21.60;28.40
3944;DHT22;1986;52.546;13.428;2023-06-04T10:31:24;20.90;27.70
3944;DHT22;1986;52.546;13.428;2023-06-04T10:33:54;21.30;28.40
3944;DHT22;1986;52.546;13.428;2023-06-04T10:36:22;21.40;28.90
3944;DHT22;1986;52.546;13.428;2023-06-04T10:38:52;21.40;27.60
3944;DHT22;1986;52.546;13.428;2023-06-04T10:41:20;21.40;28.00
3944;DHT22;1986;52.546;13.428;2023-06-04T10:43:48;21.60;28.30
3944;DHT22;1986;52.546;13.428;2023-06-04T10:46:18;21.20;28.30
3944;DHT22;1986;52.546;13.428;2023-06-04T10:48:59;21.60;28.90
3944;DHT22;1986;52.546;13.428;2023-06-04T10:51:30;21.50;27.90
3944;DHT22;1986;52.546;13.428;2023-06-04T10:54:00;21.80;28.70
3944;DHT22;1986;52.546;13.428;2023-06-04T10:56:29;21.90;28.50
3944;DHT22;1986;52.546;13.428;2023-06-04T10:58:57;21.60;27.60
3944;DHT22;1986;52.546;13.428;2023-06-04T11:01:25;21.20;28.20
3944;DHT22;1986;52.546;13.428;2023-06-04T11:03:55;21.10;27.70
3944;DHT22;1986;52.546;13.428;2023-06-04T11:06:23;21.10;28.00
3944;DHT22;1986;52.546;13.428;2023-06-04T11:09:03;21.00;28.40
3944;DHT22;1986;52.546;13.428;2023-06-04T11:11:31;21.00;28.10
3944;DHT22;1986;52.546;13.428;2023-06-04T11:14:07;21.20;28.50
3944;DHT22;1986;52.546;13.428;2023-06-04T11:16:35;21.60;28.80
3944;DHT22;1986;52.546;13.428;2023-06-04T11:19:02;21.80;28.20
3944;DHT22;1986;52.546;13.428;2023-06-04T11:21:29;21.50;27.70
3944;DHT22;1986;52.546;13.428;2023-06-04T11:23:58;21.40;27.80
3944;DHT22;1986;52.546;13.428;2023-06-04T11:26:31;21.30;27.50
3944;DHT22;1986;52.546;13.428;2023-06-04T11:28:58;21.40;27.80
3944;DHT22;1986;52.546;13.428;2023-06-04T11:31:25;21.40;27.90
3944;DHT22;1986;52.546;13.428;2023-06-04T11:33:52;21.60;27.90
3944;DHT22;1986;52.546;13.428;2023-06-04T11:36:23;21.80;28.00
3944;DHT22;1986;52.546;13.428;2023-06-04T11:38:55;21.70;27.70
3944;DHT22;1986;52.546;13.428;2023-06-04T11:41:22;21.60;27.30
3944;DHT22;1986;52.546;13.428;2023-06-04T11:43:50;21.50;27.40
3944;DHT22;1986;52.546;13.428;2023-06-04T11:46:18;21.10;26.90
3944;DHT22;1986;52.546;13.428;2023-06-04T11:48:45;21.00;26.90
3944;DHT22;1986;52.546;13.428;2023-06-04T11:51:13;21.20;27.50
3944;DHT22;1986;52.546;13.428;2023-06-04T11:53:40;21.50;26.90
3944;DHT22;1986;52.546;13.428;2023-06-04T11:56:07;21.80;27.50
3944;DHT22;1986;52.546;13.428;2023-06-04T11:58:34;22.00;27.40
3944;DHT22;1986;52.546;13.428;2023-06-04T12:01:03;21.90;27.10
3944;DHT22;1986;52.546;13.428;2023-06-04T12:03:37;22.00;26.70
3944;DHT22;1986;52.546;13.428;2023-06-04T12:06:13;22.00;26.70
3944;DHT22;1986;52.546;13.428;2023-06-04T12:08:48;22.10;26.40
3944;DHT22;1986;52.546;13.428;2023-06-04T12:11:29;22.30;27.10
3944;DHT22;1986;52.546;13.428;2023-06-04T12:13:57;22.60;26.60
3944;DHT22;1986;52.546;13.428;2023-06-04T12:16:26;22.80;27.40
3944;DHT22;1986;52.546;13.428;2023-06-04T12:19:05;22.20;26.00
3944;DHT22;1986;52.546;13.428;2023-06-04T12:21:33;22.50;26.40
3944;DHT22;1986;52.546;13.428;2023-06-04T12:24:07;22.60;26.60
3944;DHT22;1986;52.546;13.428;2023-06-04T12:26:34;22.00;26.10
3944;DHT22;1986;52.546;13.428;2023-06-04T12:29:08;22.00;26.00
3944;DHT22;1986;52.546;13.428;2023-06-04T12:31:42;22.50;26.40
3944;DHT22;1986;52.546;13.428;2023-06-04T12:34:09;22.70;25.70
3944;DHT22;1986;52.546;13.428;2023-06-04T12:36:37;22.70;25.80
3944;DHT22;1986;52.546;13.428;2023-06-04T12:39:08;22.80;25.80
3944;DHT22;1986;52.546;13.428;2023-06-04T12:41:35;22.70;25.90
3944;DHT22;1986;52.546;13.428;2023-06-04T12:44:02;22.30;26.00
3944;DHT22;1986;52.546;13.428;2023-06-04T12:46:29;22.40;26.20
3944;DHT22;1986;52.546;13.428;2023-06-04T12:48:57;22.40;26.20
3944;DHT22;1986;52.546;13.428;2023-06-04T12:51:24;22.20;26.80
3944;DHT22;1986;52.546;13.428;2023-06-04T12:53:51;22.20;26.90
3944;DHT22;1986;52.546;13.428;2023-06-04T12:56:19;22.30;26.20
3944;DHT22;1986;52.546;13.428;2023-06-04T12:58:46;22.30;26.20
3944;DHT22;1986;52.546;13.428;2023-06-04T13:01:12;22.10;26.40
3944;DHT22;1986;52.546;13.428;2023-06-04T13:03:40;22.00;26.60
3944;DHT22;1986;52.546;13.428;2023-06-04T13:06:08;22.10;27.30
3944;DHT22;1986;52.546;13.428;2023-06-04T13:08:38;22.40;27.00
3944;DHT22;1986;52.546;13.428;2023-06-04T13:11:05;22.60;26.40
3944;DHT22;1986;52.546;13.428;2023-06-04T13:13:33;22.60;26.40
3944;DHT22;1986;52.546;13.428;2023-06-04T13:16:00;22.40;25.80
3944;DHT22;1986;52.546;13.428;2023-06-04T13:18:31;22.40;25.60
3944;DHT22;1986;52.546;13.428;2023-06-04T13:21:11;22.30;25.10
3944;DHT22;1986;52.546;13.428;2023-06-04T13:23:45;22.60;25.60
3944;DHT22;1986;52.546;13.428;2023-06-04T13:26:11;22.70;25.20
3944;DHT22;1986;52.546;13.428;2023-06-04T13:28:39;22.70;25.20
3944;DHT22;1986;52.546;13.428;2023-06-04T13:31:06;22.90;25.40
3944;DHT22;1986;52.546;13.428;2023-06-04T13:33:33;23.10;25.50
3944;DHT22;1986;52.546;13.428;2023-06-04T13:36:01;23.00;24.80
3944;DHT22;1986;52.546;13.428;2023-06-04T13:38:30;22.90;24.90
3944;DHT22;1986;52.546;13.428;2023-06-04T13:40:57;22.70;24.70
3944;DHT22;1986;52.546;13.428;2023-06-04T13:43:24;22.60;24.40
3944;DHT22;1986;52.546;13.428;2023-06-04T13:45:51;22.50;24.20
3944;DHT22;1986;52.546;13.428;2023-06-04T13:48:18;22.50;24.20
3944;DHT22;1986;52.546;13.428;2023-06-04T13:50:45;22.40;24.70
3944;DHT22;1986;52.546;13.428;2023-06-04T13:53:12;22.30;24.20
3944;DHT22;1986;52.546;13.428;2023-06-04T13:55:42;22.10;25.40
3944;DHT22;1986;52.546;13.428;2023-06-04T13:58:09;21.90;25.80
3944;DHT22;1986;52.546;13.428;2023-06-04T14:00:36;22.30;26.20
3944;DHT22;1986;52.546;13.428;2023-06-04T14:03:03;22.30;25.40
3944;DHT22;1986;52.546;13.428;2023-06-04T14:05:31;22.30;25.70
3944;DHT22;1986;52.546;13.428;2023-06-04T14:07:58;22.40;26.00
3944;DHT22;1986;52.546;13.428;2023-06-04T14:10:28;22.60;25.70
3944;DHT22;1986;52.546;13.428;2023-06-04T14:12:56;22.30;25.40
3944;DHT22;1986;52.546;13.428;2023-06-04T14:15:23;22.70;26.50
3944;DHT22;1986;52.546;13.428;2023-06-04T14:17:50;22.90;26.00
3944;DHT22;1986;52.546;13.428;2023-06-04T14:20:17;23.00;25.70
3944;DHT22;1986;52.546;13.428;2023-06-04T14:22:44;23.20;26.30
3944;DHT22;1986;52.546;13.428;2023-06-04T14:25:11;23.00;25.60
3944;DHT22;1986;52.546;13.428;2023-06-04T14:27:41;23.20;25.70
3944;DHT22;1986;52.546;13.428;2023-06-04T14:30:12;23.10;24.80
3944;DHT22;1986;52.546;13.428;2023-06-04T14:32:41;22.80;25.70
3944;DHT22;1986;52.546;13.428;2023-06-04T14:35:08;22.60;25.50
3944;DHT22;1986;52.546;13.428;2023-06-04T14:37:35;22.50;26.00
3944;DHT22;1986;52.546;13.428;2023-06-04T14:40:02;22.60;26.20
3944;DHT22;1986;52.546;13.428;2023-06-04T14:42:30;22.50;25.10
3944;DHT22;1986;52.546;13.428;2023-06-04T14:44:57;22.80;25.60
3944;DHT22;1986;52.546;13.428;2023-06-04T14:47:25;22.70;25.90
3944;DHT22;1986;52.546;13.428;2023-06-04T14:49:52;22.80;26.50
3944;DHT22;1986;52.546;13.428;2023-06-04T14:52:19;22.60;26.00
3944;DHT22;1986;52.546;13.428;2023-06-04T14:54:46;22.60;26.00
3944;DHT22;1986;52.546;13.428;2023-06-04T14:57:13;22.70;26.40
3944;DHT22;1986;52.546;13.428;2023-06-04T14:59:43;22.40;26.20
3944;DHT22;1986;52.546;13.428;2023-06-04T15:02:10;22.60;26.60
3944;DHT22;1986;52.546;13.428;2023-06-04T15:04:38;22.60;26.30
3944;DHT22;1986;52.546;13.428;2023-06-04T15:07:09;22.60;26.50
3944;DHT22;1986;52.546;13.428;2023-06-04T15:09:36;22.80;26.70
3944;DHT22;1986;52.546;13.428;2023-06-04T15:12:04;23.00;26.40
3944;DHT22;1986;52.546;13.428;2023-06-04T15:14:31;22.80;26.80
3944;DHT22;1986;52.546;13.428;2023-06-04T15:16:58;22.80;27.10
3944;DHT22;1986;52.546;13.428;2023-06-04T15:19:25;22.60;26.80
3944;DHT22;1986;52.546;13.428;2023-06-04T15:21:57;22.60;27.20
3944;DHT22;1986;52.546;13.428;2023-06-04T15:24:25;22.50;27.00
3944;DHT22;1986;52.546;13.428;2023-06-04T15:26:52;22.40;26.70
3944;DHT22;1986;52.546;13.428;2023-06-04T15:29:19;22.40;27.10
3944;DHT22;1986;52.546;13.428;2023-06-04T15:31:46;22.60;27.40
3944;DHT22;1986;52.546;13.428;2023-06-04T15:34:13;22.60;27.40
3944;DHT22;1986;52.546;13.428;2023-06-04T15:36:41;22.50;27.20
3944;DHT22;1986;52.546;13.428;2023-06-04T15:39:09;22.60;27.40
3944;DHT22;1986;52.546;13.428;2023-06-04T15:41:36;22.60;27.40
3944;DHT22;1986;52.546;13.428;2023-06-04T15:44:03;22.50;27.20
3944;DHT22;1986;52.546;13.428;2023-06-04T15:46:31;22.60;27.70
3944;DHT22;1986;52.546;13.428;2023-06-04T15:48:58;22.50;27.50
3944;DHT22;1986;52.546;13.428;2023-06-04T15:51:37;22.40;27.20
3944;DHT22;1986;52.546;13.428;2023-06-04T15:54:04;22.50;27.60
3944;DHT22;1986;52.546;13.428;2023-06-04T15:56:32;22.60;28.00